sensor_id;sensor_type;location;lat;lon;timestamp;pressure;altitude;pressure_sealevel;temperature;humidity
43553;BME280;29153;42.696;23.218;2024-03-17T00:01:41;94707.36;;;3.28;100.00
43553;BME280;29153;42.696;23.218;2024-03-17T00:04:09;94710.27;;;3.29;100.00
43553;BME280;29153;42.696;23.218;2024-03-17T00:06:36;94700.73;;;3.26;100.00
43553;BME280;29153;42.696;23.218;2024-03-17T00:09:04;94709.50;;;3.19;100.00
43553;BME280;29153;42.696;23.218;2024-03-17T00:11:33;94707.59;;;3.17;100.00
43553;BME280;29153;42.696;23.218;2024-03-17T00:14:02;94707.34;;;3.16;100.00
43553;BME280;29153;42.696;23.218;2024-03-17T00:16:29;94709.03;;;3.02;100.00
43553;BME280;29153;42.696;23.218;2024-03-17T00:18:57;94712.63;;;2.89;100.00
43553;BME280;29153;42.696;23.218;2024-03-17T00:21:25;94704.97;;;2.97;100.00
43553;BME280;29153;42.696;23.218;2024-03-17T00:23:52;94709.89;;;3.05;100.00
43553;BME280;29153;42.696;23.218;2024-03-17T00:26:20;94711.20;;;3.05;100.00
43553;BME280;29153;42.696;23.218;2024-03-17T00:28:48;94707.03;;;2.95;100.00
43553;BME280;29153;42.696;23.218;2024-03-17T00:31:17;94706.30;;;2.79;100.00
43553;BME280;29153;42.696;23.218;2024-03-17T00:33:45;94704.58;;;2.82;100.00
43553;BME280;29153;42.696;23.218;2024-03-17T00:36:13;94703.47;;;2.89;100.00
43553;BME280;29153;42.696;23.218;2024-03-17T00:38:41;94697.00;;;2.83;100.00
43553;BME280;29153;42.696;23.218;2024-03-17T00:41:08;94698.25;;;2.80;100.00
43553;BME280;29153;42.696;23.218;2024-03-17T00:43:36;94703.12;;;2.86;100.00
43553;BME280;29153;42.696;23.218;2024-03-17T00:46:04;94698.61;;;2.74;100.00
43553;BME280;29153;42.696;23.218;2024-03-17T00:48:31;94700.06;;;2.80;100.00
43553;BME280;29153;42.696;23.218;2024-03-17T00:50:59;94701.73;;;2.74;100.00
43553;BME280;29153;42.696;23.218;2024-03-17T00:53:27;94705.10;;;2.63;100.00
43553;BME280;29153;42.696;23.218;2024-03-17T00:55:56;94704.89;;;2.64;100.00
43553;BME280;29153;42.696;23.218;2024-03-17T00:58:25;94704.89;;;2.64;100.00
43553;BME280;29153;42.696;23.218;2024-03-17T01:00:52;94703.29;;;2.63;100.00
43553;BME280;29153;42.696;23.218;2024-03-17T01:03:20;94704.23;;;2.69;100.00
43553;BME280;29153;42.696;23.218;2024-03-17T01:05:48;94704.89;;;2.64;100.00
43553;BME280;29153;42.696;23.218;2024-03-17T01:08:17;94706.86;;;2.60;100.00
43553;BME280;29153;42.696;23.218;2024-03-17T01:10:46;94704.75;;;2.59;100.00
43553;BME280;29153;42.696;23.218;2024-03-17T01:13:18;94709.11;;;2.56;100.00
43553;BME280;29153;42.696;23.218;2024-03-17T01:15:45;94706.77;;;2.48;100.00
43553;BME280;29153;42.696;23.218;2024-03-17T01:18:13;94709.17;;;2.59;100.00
43553;BME280;29153;42.696;23.218;2024-03-17T01:20:40;94707.16;;;2.52;100.00
43553;BME280;29153;42.696;23.218;2024-03-17T01:23:08;94709.53;;;2.44;100.00
43553;BME280;29153;42.696;23.218;2024-03-17T01:25:35;94703.30;;;2.45;100.00
43553;BME280;29153;42.696;23.218;2024-03-17T01:28:04;94716.07;;;2.53;100.00
43553;BME280;29153;42.696;23.218;2024-03-17T01:30:33;94711.48;;;2.58;100.00
43553;BME280;29153;42.696;23.218;2024-03-17T01:33:01;94711.48;;;2.58;100.00
43553;BME280;29153;42.696;23.218;2024-03-17T01:35:30;94702.73;;;2.52;100.00
43553;BME280;29153;42.696;23.218;2024-03-17T01:37:58;94701.48;;;2.55;100.00
43553;BME280;29153;42.696;23.218;2024-03-17T01:40:25;94703.30;;;2.45;100.00
43553;BME280;29153;42.696;23.218;2024-03-17T01:42:53;94697.20;;;2.33;100.00
43553;BME280;29153;42.696;23.218;2024-03-17T01:45:26;94697.20;;;2.33;100.00
43553;BME280;29153;42.696;23.218;2024-03-17T01:47:55;94698.36;;;2.28;100.00
43553;BME280;29153;42.696;23.218;2024-03-17T01:50:38;94700.26;;;2.30;100.00
43553;BME280;29153;42.696;23.218;2024-03-17T01:53:05;94700.41;;;2.26;100.00
43553;BME280;29153;42.696;23.218;2024-03-17T01:55:37;94698.86;;;2.27;100.00
43553;BME280;29153;42.696;23.218;2024-03-17T01:58:06;94703.58;;;2.28;100.00
43553;BME280;29153;42.696;23.218;2024-03-17T02:00:37;94700.55;;;2.22;100.00
43553;BME280;29153;42.696;23.218;2024-03-17T02:03:06;94696.47;;;2.08;100.00
43553;BME280;29153;42.696;23.218;2024-03-17T02:05:36;94702.56;;;2.20;100.00
43553;BME280;29153;42.696;23.218;2024-03-17T02:08:06;94700.61;;;2.24;100.00
43553;BME280;29153;42.696;23.218;2024-03-17T02:10:34;94696.63;;;2.22;100.00
43553;BME280;29153;42.696;23.218;2024-03-17T02:13:02;94695.67;;;2.16;100.00
43553;BME280;29153;42.696;23.218;2024-03-17T02:15:33;94691.60;;;2.11;100.00
43553;BME280;29153;42.696;23.218;2024-03-17T02:18:01;94690.66;;;2.15;100.00
43553;BME280;29153;42.696;23.218;2024-03-17T02:20:28;94695.87;;;2.06;100.00
43553;BME280;29153;42.696;23.218;2024-03-17T02:23:14;94693.56;;;2.07;100.00
43553;BME280;29153;42.696;23.218;2024-03-17T02:25:42;94695.87;;;2.06;100.00
43553;BME280;29153;42.696;23.218;2024-03-17T02:28:11;94696.39;;;1.96;100.00
43553;BME280;29153;42.696;23.218;2024-03-17T02:30:38;94695.95;;;1.99;100.00
43553;BME280;29153;42.696;23.218;2024-03-17T02:33:06;94697.03;;;1.92;100.00
43553;BME280;29153;42.696;23.218;2024-03-17T02:35:34;94696.09;;;1.95;100.00
43553;BME280;29153;42.696;23.218;2024-03-17T02:38:02;94697.97;;;1.97;100.00
43553;BME280;29153;42.696;23.218;2024-03-17T02:40:30;94692.23;;;1.98;100.00
43553;BME280;29153;42.696;23.218;2024-03-17T02:42:57;94695.09;;;1.96;100.00
43553;BME280;29153;42.696;23.218;2024-03-17T02:45:25;94692.39;;;2.03;100.00
43553;BME280;29153;42.696;23.218;2024-03-17T02:47:52;94696.16;;;1.98;100.00
43553;BME280;29153;42.696;23.218;2024-03-17T02:50:20;94696.30;;;1.94;100.00
43553;BME280;29153;42.696;23.218;2024-03-17T02:52:48;94692.02;;;1.90;100.00
43553;BME280;29153;42.696;23.218;2024-03-17T02:55:15;94686.45;;;1.96;100.00
43553;BME280;29153;42.696;23.218;2024-03-17T02:57:44;94685.70;;;1.98;100.00
43553;BME280;29153;42.696;23.218;2024-03-17T03:00:12;94689.22;;;2.01;100.00
43553;BME280;29153;42.696;23.218;2024-03-17T03:02:39;94684.71;;;2.08;100.00
43553;BME280;29153;42.696;23.218;2024-03-17T03:05:07;94693.56;;;2.07;100.00
43553;BME280;29153;42.696;23.218;2024-03-17T03:07:35;94684.64;;;1.96;100.00
43553;BME280;29153;42.696;23.218;2024-03-17T03:10:02;94688.91;;;2.00;100.00
43553;BME280;29153;42.696;23.218;2024-03-17T03:12:30;94681.72;;;1.95;100.00
43553;BME280;29153;42.696;23.218;2024-03-17T03:14:58;94685.55;;;1.93;100.00
43553;BME280;29153;42.696;23.218;2024-03-17T03:17:25;94684.24;;;1.93;100.00
43553;BME280;29153;42.696;23.218;2024-03-17T03:19:53;94685.44;;;1.97;100.00
43553;BME280;29153;42.696;23.218;2024-03-17T03:22:22;94677.45;;;2.01;100.00
43553;BME280;29153;42.696;23.218;2024-03-17T03:24:53;94677.81;;;2.04;100.00
43553;BME280;29153;42.696;23.218;2024-03-17T03:27:21;94679.91;;;1.96;100.00
43553;BME280;29153;42.696;23.218;2024-03-17T03:29:49;94677.88;;;1.98;100.00
43553;BME280;29153;42.696;23.218;2024-03-17T03:32:16;94685.50;;;1.99;100.00
43553;BME280;29153;42.696;23.218;2024-03-17T03:34:44;94692.09;;;2.02;100.00
43553;BME280;29153;42.696;23.218;2024-03-17T03:37:12;94689.42;;;1.99;100.00
43553;BME280;29153;42.696;23.218;2024-03-17T03:39:39;94684.04;;;1.94;100.00
43553;BME280;29153;42.696;23.218;2024-03-17T03:42:07;94690.36;;;1.96;100.00
43553;BME280;29153;42.696;23.218;2024-03-17T03:44:34;94682.52;;;1.87;100.00
43553;BME280;29153;42.696;23.218;2024-03-17T03:47:02;94686.29;;;1.91;100.00
43553;BME280;29153;42.696;23.218;2024-03-17T03:49:30;94688.90;;;1.91;100.00
43553;BME280;29153;42.696;23.218;2024-03-17T03:51:57;94694.78;;;1.95;100.00
43553;BME280;29153;42.696;23.218;2024-03-17T03:54:25;94696.66;;;1.97;100.00
43553;BME280;29153;42.696;23.218;2024-03-17T03:56:52;94698.36;;;2.01;100.00
43553;BME280;29153;42.696;23.218;2024-03-17T03:59:20;94701.88;;;1.97;100.00
43553;BME280;29153;42.696;23.218;2024-03-17T04:01:48;94697.30;;;1.93;100.00
43553;BME280;29153;42.696;23.218;2024-03-17T04:04:15;94703.47;;;1.89;100.00
43553;BME280;29153;42.696;23.218;2024-03-17T04:06:43;94709.06;;;1.83;100.00
43553;BME280;29153;42.696;23.218;2024-03-17T04:09:10;94710.07;;;1.82;100.00
43553;BME280;29153;42.696;23.218;2024-03-17T04:11:38;94708.03;;;1.84;100.00
43553;BME280;29153;42.696;23.218;2024-03-17T04:14:06;94713.13;;;1.79;100.00
43553;BME280;29153;42.696;23.218;2024-03-17T04:16:33;94708.23;;;1.74;100.00
43553;BME280;29153;42.696;23.218;2024-03-17T04:19:01;94713.85;;;1.87;100.00
43553;BME280;29153;42.696;23.218;2024-03-17T04:21:29;94720.54;;;1.92;100.00
43553;BME280;29153;42.696;23.218;2024-03-17T04:23:56;94724.09;;;1.97;100.00
43553;BME280;29153;42.696;23.218;2024-03-17T04:26:24;94725.03;;;1.94;100.00
43553;BME280;29153;42.696;23.218;2024-03-17T04:28:51;94725.03;;;1.94;100.00
43553;BME280;29153;42.696;23.218;2024-03-17T04:31:19;94735.41;;;1.91;100.00
43553;BME280;29153;42.696;23.218;2024-03-17T04:33:46;94730.41;;;1.99;100.00
43553;BME280;29153;42.696;23.218;2024-03-17T04:36:14;94731.67;;;2.05;100.00
43553;BME280;29153;42.696;23.218;2024-03-17T04:38:42;94734.49;;;2.04;100.00
43553;BME280;29153;42.696;23.218;2024-03-17T04:41:09;94732.36;;;1.94;100.00
43553;BME280;29153;42.696;23.218;2024-03-17T04:43:37;94735.17;;;1.93;100.00
43553;BME280;29153;42.696;23.218;2024-03-17T04:46:05;94737.01;;;2.01;100.00
43553;BME280;29153;42.696;23.218;2024-03-17T04:48:34;94744.27;;;1.99;100.00
43553;BME280;29153;42.696;23.218;2024-03-17T04:51:01;94742.17;;;1.99;100.00
43553;BME280;29153;42.696;23.218;2024-03-17T04:53:29;94754.95;;;2.07;100.00
43553;BME280;29153;42.696;23.218;2024-03-17T04:56:04;94753.78;;;2.03;100.00
43553;BME280;29153;42.696;23.218;2024-03-17T04:58:32;94755.98;;;2.15;100.00
43553;BME280;29153;42.696;23.218;2024-03-17T05:01:07;94758.25;;;2.20;100.00
43553;BME280;29153;42.696;23.218;2024-03-17T05:03:35;94760.78;;;2.27;100.00
43553;BME280;29153;42.696;23.218;2024-03-17T05:06:04;94761.23;;;2.33;100.00
43553;BME280;29153;42.696;23.218;2024-03-17T05:08:31;94773.89;;;2.54;100.00
43553;BME280;29153;42.696;23.218;2024-03-17T05:11:00;94769.61;;;2.60;100.00
43553;BME280;29153;42.696;23.218;2024-03-17T05:13:30;94769.52;;;2.66;100.00
43553;BME280;29153;42.696;23.218;2024-03-17T05:15:57;94774.70;;;2.82;100.00
43553;BME280;29153;42.696;23.218;2024-03-17T05:18:25;94777.28;;;2.91;100.00
43553;BME280;29153;42.696;23.218;2024-03-17T05:21:00;94776.47;;;3.00;100.00
43553;BME280;29153;42.696;23.218;2024-03-17T05:23:29;94782.70;;;3.17;100.00
43553;BME280;29153;42.696;23.218;2024-03-17T05:25:57;94780.16;;;3.29;100.00
43553;BME280;29153;42.696;23.218;2024-03-17T05:28:25;94778.02;;;3.37;100.00
43553;BME280;29153;42.696;23.218;2024-03-17T05:30:53;94778.99;;;3.54;100.00
43553;BME280;29153;42.696;23.218;2024-03-17T05:33:21;94782.02;;;3.60;100.00
43553;BME280;29153;42.696;23.218;2024-03-17T05:35:53;94785.45;;;3.73;100.00
43553;BME280;29153;42.696;23.218;2024-03-17T05:38:26;94785.09;;;3.90;100.00
43553;BME280;29153;42.696;23.218;2024-03-17T05:41:00;94787.30;;;4.04;100.00
43553;BME280;29153;42.696;23.218;2024-03-17T05:43:35;94793.80;;;4.13;100.00
43553;BME280;29153;42.696;23.218;2024-03-17T05:46:05;94781.62;;;4.31;100.00
43553;BME280;29153;42.696;23.218;2024-03-17T05:48:35;94782.29;;;4.61;100.00
43553;BME280;29153;42.696;23.218;2024-03-17T05:51:09;94773.49;;;4.93;100.00
43553;BME280;29153;42.696;23.218;2024-03-17T05:53:38;94779.13;;;5.25;100.00
43553;BME280;29153;42.696;23.218;2024-03-17T05:56:06;94780.52;;;5.58;100.00
43553;BME280;29153;42.696;23.218;2024-03-17T05:58:36;94785.33;;;5.78;100.00
43553;BME280;29153;42.696;23.218;2024-03-17T06:01:04;94781.40;;;5.92;100.00
43553;BME280;29153;42.696;23.218;2024-03-17T06:03:34;94791.12;;;6.08;100.00
43553;BME280;29153;42.696;23.218;2024-03-17T06:06:06;94782.77;;;6.28;100.00
43553;BME280;29153;42.696;23.218;2024-03-17T06:08:35;94787.20;;;6.42;100.00
43553;BME280;29153;42.696;23.218;2024-03-17T06:11:04;94792.51;;;6.47;100.00
43553;BME280;29153;42.696;23.218;2024-03-17T06:13:32;94797.31;;;6.69;100.00
43553;BME280;29153;42.696;23.218;2024-03-17T06:16:01;94793.81;;;6.82;100.00
43553;BME280;29153;42.696;23.218;2024-03-17T06:18:28;94797.08;;;7.11;100.00
43553;BME280;29153;42.696;23.218;2024-03-17T06:20:56;94806.81;;;7.32;100.00
43553;BME280;29153;42.696;23.218;2024-03-17T06:23:27;94804.08;;;7.44;100.00
43553;BME280;29153;42.696;23.218;2024-03-17T06:25:55;94784.83;;;7.44;100.00
43553;BME280;29153;42.696;23.218;2024-03-17T06:28:23;94810.73;;;7.76;100.00
43553;BME280;29153;42.696;23.218;2024-03-17T06:30:59;94813.20;;;7.88;100.00
43553;BME280;29153;42.696;23.218;2024-03-17T06:33:27;94817.62;;;8.06;100.00
43553;BME280;29153;42.696;23.218;2024-03-17T06:35:55;94824.80;;;8.13;100.00
43553;BME280;29153;42.696;23.218;2024-03-17T06:38:23;94833.84;;;8.20;100.00
43553;BME280;29153;42.696;23.218;2024-03-17T06:40:51;94846.06;;;8.29;100.00
43553;BME280;29153;42.696;23.218;2024-03-17T06:43:19;94844.41;;;8.47;100.00
43553;BME280;29153;42.696;23.218;2024-03-17T06:45:57;94841.12;;;8.69;100.00
43553;BME280;29153;42.696;23.218;2024-03-17T06:48:25;94847.42;;;8.63;98.73
43553;BME280;29153;42.696;23.218;2024-03-17T06:50:54;94845.41;;;8.78;97.24
43553;BME280;29153;42.696;23.218;2024-03-17T06:53:21;94844.20;;;8.95;96.67
43553;BME280;29153;42.696;23.218;2024-03-17T06:55:54;94854.91;;;9.21;95.78
43553;BME280;29153;42.696;23.218;2024-03-17T06:58:22;94862.42;;;9.39;93.09
43553;BME280;29153;42.696;23.218;2024-03-17T07:00:57;94848.00;;;9.69;93.95
43553;BME280;29153;42.696;23.218;2024-03-17T07:03:30;94851.25;;;9.91;91.89
43553;BME280;29153;42.696;23.218;2024-03-17T07:06:00;94861.31;;;10.02;91.63
43553;BME280;29153;42.696;23.218;2024-03-17T07:08:30;94863.16;;;9.91;87.46
43553;BME280;29153;42.696;23.218;2024-03-17T07:11:05;94852.06;;;9.99;89.97
43553;BME280;29153;42.696;23.218;2024-03-17T07:13:34;94856.57;;;10.06;90.49
43553;BME280;29153;42.696;23.218;2024-03-17T07:16:03;94863.02;;;10.38;89.65
43553;BME280;29153;42.696;23.218;2024-03-17T07:18:34;94863.02;;;10.38;89.65
43553;BME280;29153;42.696;23.218;2024-03-17T07:21:04;94864.09;;;10.68;88.54
43553;BME280;29153;42.696;23.218;2024-03-17T07:23:32;94871.23;;;11.03;85.23
43553;BME280;29153;42.696;23.218;2024-03-17T07:26:01;94871.23;;;11.03;85.23
43553;BME280;29153;42.696;23.218;2024-03-17T07:28:31;94872.01;;;10.95;85.40
43553;BME280;29153;42.696;23.218;2024-03-17T07:30:59;94875.72;;;10.44;82.69
43553;BME280;29153;42.696;23.218;2024-03-17T07:33:27;94880.77;;;10.50;84.67
43553;BME280;29153;42.696;23.218;2024-03-17T07:35:57;94873.09;;;10.54;86.03
43553;BME280;29153;42.696;23.218;2024-03-17T07:38:27;94876.25;;;10.31;83.71
43553;BME280;29153;42.696;23.218;2024-03-17T07:40:58;94874.67;;;10.58;85.60
43553;BME280;29153;42.696;23.218;2024-03-17T07:43:26;94870.97;;;10.66;85.54
43553;BME280;29153;42.696;23.218;2024-03-17T07:46:02;94869.92;;;10.72;84.83
43553;BME280;29153;42.696;23.218;2024-03-17T07:48:34;94872.83;;;10.71;83.74
43553;BME280;29153;42.696;23.218;2024-03-17T07:51:08;94879.45;;;10.63;82.95
43553;BME280;29153;42.696;23.218;2024-03-17T07:53:37;94873.37;;;10.60;84.22
43553;BME280;29153;42.696;23.218;2024-03-17T07:56:11;94870.72;;;10.65;86.59
43553;BME280;29153;42.696;23.218;2024-03-17T07:58:43;94874.67;;;10.70;84.31
43553;BME280;29153;42.696;23.218;2024-03-17T08:01:12;94869.64;;;10.61;82.89
43553;BME280;29153;42.696;23.218;2024-03-17T08:03:42;94871.77;;;10.54;84.42
43553;BME280;29153;42.696;23.218;2024-03-17T08:06:10;94876.00;;;10.63;83.42
43553;BME280;29153;42.696;23.218;2024-03-17T08:08:38;94876.00;;;10.50;82.79
43553;BME280;29153;42.696;23.218;2024-03-17T08:11:06;94868.83;;;10.25;83.93
43553;BME280;29153;42.696;23.218;2024-03-17T08:13:33;94868.83;;;10.25;83.93
43553;BME280;29153;42.696;23.218;2024-03-17T08:16:05;94872.46;;;10.14;82.26
43553;BME280;29153;42.696;23.218;2024-03-17T08:18:35;94876.71;;;10.13;82.74
43553;BME280;29153;42.696;23.218;2024-03-17T08:21:03;94877.56;;;10.26;82.84
43553;BME280;29153;42.696;23.218;2024-03-17T08:23:33;94875.70;;;10.29;82.14
43553;BME280;29153;42.696;23.218;2024-03-17T08:26:02;94873.61;;;10.79;82.28
43553;BME280;29153;42.696;23.218;2024-03-17T08:28:30;94873.82;;;11.38;77.73
43553;BME280;29153;42.696;23.218;2024-03-17T08:31:01;94870.52;;;11.71;79.35
43553;BME280;29153;42.696;23.218;2024-03-17T08:33:29;94875.00;;;11.81;76.49
43553;BME280;29153;42.696;23.218;2024-03-17T08:36:03;94864.80;;;12.08;77.22
43553;BME280;29153;42.696;23.218;2024-03-17T08:38:31;94857.50;;;12.31;73.60
43553;BME280;29153;42.696;23.218;2024-03-17T08:41:05;94857.50;;;12.31;73.60
43553;BME280;29153;42.696;23.218;2024-03-17T08:43:33;94851.53;;;12.47;76.00
43553;BME280;29153;42.696;23.218;2024-03-17T08:46:01;94853.27;;;12.64;72.87
43553;BME280;29153;42.696;23.218;2024-03-17T08:48:31;94840.64;;;12.83;73.56
43553;BME280;29153;42.696;23.218;2024-03-17T08:51:00;94844.16;;;13.04;71.37
43553;BME280;29153;42.696;23.218;2024-03-17T08:53:31;94842.44;;;13.21;69.49
43553;BME280;29153;42.696;23.218;2024-03-17T08:55:59;94838.40;;;13.26;71.89
43553;BME280;29153;42.696;23.218;2024-03-17T08:58:27;94825.02;;;13.31;71.71
43553;BME280;29153;42.696;23.218;2024-03-17T09:00:55;94833.28;;;13.56;66.56
43553;BME280;29153;42.696;23.218;2024-03-17T09:03:22;94830.08;;;13.01;65.77
43553;BME280;29153;42.696;23.218;2024-03-17T09:05:52;94821.29;;;13.32;72.37
43553;BME280;29153;42.696;23.218;2024-03-17T09:08:22;94816.40;;;13.42;68.84
43553;BME280;29153;42.696;23.218;2024-03-17T09:10:51;94816.25;;;13.54;71.04
43553;BME280;29153;42.696;23.218;2024-03-17T09:13:21;94817.55;;;13.78;67.55
43553;BME280;29153;42.696;23.218;2024-03-17T09:15:58;94820.50;;;13.98;68.99
43553;BME280;29153;42.696;23.218;2024-03-17T09:18:30;94818.65;;;13.77;62.52
43553;BME280;29153;42.696;23.218;2024-03-17T09:21:05;94810.13;;;13.96;66.12
43553;BME280;29153;42.696;23.218;2024-03-17T09:23:34;94804.16;;;14.23;67.71
43553;BME280;29153;42.696;23.218;2024-03-17T09:26:05;94809.14;;;14.48;67.70
43553;BME280;29153;42.696;23.218;2024-03-17T09:28:36;94810.40;;;14.16;64.79
43553;BME280;29153;42.696;23.218;2024-03-17T09:31:04;94807.01;;;14.10;61.60
43553;BME280;29153;42.696;23.218;2024-03-17T09:33:34;94807.28;;;14.46;60.16
43553;BME280;29153;42.696;23.218;2024-03-17T09:36:06;94792.00;;;14.36;59.64
43553;BME280;29153;42.696;23.218;2024-03-17T09:38:35;94791.16;;;14.38;56.77
43553;BME280;29153;42.696;23.218;2024-03-17T09:41:03;94788.13;;;14.77;59.73
43553;BME280;29153;42.696;23.218;2024-03-17T09:43:32;94786.58;;;15.06;59.10
43553;BME280;29153;42.696;23.218;2024-03-17T09:46:02;94787.33;;;15.49;57.81
43553;BME280;29153;42.696;23.218;2024-03-17T09:48:30;94775.69;;;15.02;57.22
43553;BME280;29153;42.696;23.218;2024-03-17T09:51:02;94775.69;;;15.02;57.22
43553;BME280;29153;42.696;23.218;2024-03-17T09:53:34;94779.37;;;14.90;56.52
43553;BME280;29153;42.696;23.218;2024-03-17T09:56:16;94782.30;;;14.42;54.55
43553;BME280;29153;42.696;23.218;2024-03-17T09:58:47;94783.73;;;14.37;53.54
43553;BME280;29153;42.696;23.218;2024-03-17T10:01:15;94783.98;;;14.17;53.79
43553;BME280;29153;42.696;23.218;2024-03-17T10:03:42;94776.77;;;14.01;54.58
43553;BME280;29153;42.696;23.218;2024-03-17T10:06:14;94774.20;;;14.12;56.18
43553;BME280;29153;42.696;23.218;2024-03-17T10:08:47;94776.77;;;14.01;55.68
43553;BME280;29153;42.696;23.218;2024-03-17T10:11:16;94778.77;;;13.91;53.32
43553;BME280;29153;42.696;23.218;2024-03-17T10:13:45;94780.80;;;13.99;54.68
43553;BME280;29153;42.696;23.218;2024-03-17T10:16:24;94777.25;;;14.22;56.56
43553;BME280;29153;42.696;23.218;2024-03-17T10:19:11;94780.48;;;14.03;54.08
43553;BME280;29153;42.696;23.218;2024-03-17T10:21:44;94787.14;;;14.03;54.28
43553;BME280;29153;42.696;23.218;2024-03-17T10:24:21;94779.48;;;13.56;56.00
43553;BME280;29153;42.696;23.218;2024-03-17T10:26:56;94784.83;;;13.78;57.01
43553;BME280;29153;42.696;23.218;2024-03-17T10:29:27;94774.84;;;14.23;56.70
43553;BME280;29153;42.696;23.218;2024-03-17T10:32:02;94774.84;;;14.23;56.70
43553;BME280;29153;42.696;23.218;2024-03-17T10:34:30;94782.63;;;14.38;57.72
43553;BME280;29153;42.696;23.218;2024-03-17T10:37:21;94772.09;;;14.47;59.11
43553;BME280;29153;42.696;23.218;2024-03-17T10:39:54;94780.50;;;14.38;55.50
43553;BME280;29153;42.696;23.218;2024-03-17T10:42:27;94779.45;;;14.71;55.02
43553;BME280;29153;42.696;23.218;2024-03-17T10:44:59;94782.72;;;14.82;53.83
43553;BME280;29153;42.696;23.218;2024-03-17T10:47:27;94771.11;;;14.75;52.12
43553;BME280;29153;42.696;23.218;2024-03-17T10:49:55;94771.71;;;14.86;51.80
43553;BME280;29153;42.696;23.218;2024-03-17T10:52:24;94781.53;;;15.04;54.01
43553;BME280;29153;42.696;23.218;2024-03-17T10:54:53;94774.81;;;14.93;50.51
43553;BME280;29153;42.696;23.218;2024-03-17T11:00:05;94770.86;;;15.04;51.72
43553;BME280;29153;42.696;23.218;2024-03-17T11:02:36;94770.89;;;14.88;50.17
43553;BME280;29153;42.696;23.218;2024-03-17T11:05:10;94763.34;;;14.92;52.02
43553;BME280;29153;42.696;23.218;2024-03-17T11:07:39;94768.98;;;15.04;48.17
43553;BME280;29153;42.696;23.218;2024-03-17T11:10:10;94773.59;;;15.01;45.92
43553;BME280;29153;42.696;23.218;2024-03-17T11:12:40;94756.73;;;15.17;48.20
43553;BME280;29153;42.696;23.218;2024-03-17T11:17:54;94759.31;;;14.79;48.31
43553;BME280;29153;42.696;23.218;2024-03-17T11:20:26;94753.95;;;14.95;47.15
43553;BME280;29153;42.696;23.218;2024-03-17T11:22:57;94751.39;;;15.03;49.56
43553;BME280;29153;42.696;23.218;2024-03-17T11:28:00;94748.30;;;14.83;44.09
43553;BME280;29153;42.696;23.218;2024-03-17T11:30:48;94756.36;;;14.94;43.01
43553;BME280;29153;42.696;23.218;2024-03-17T11:39:06;94736.30;;;14.83;46.28
43553;BME280;29153;42.696;23.218;2024-03-17T11:41:37;94736.30;;;14.83;46.28
43553;BME280;29153;42.696;23.218;2024-03-17T11:44:25;94734.08;;;14.87;49.66
43553;BME280;29153;42.696;23.218;2024-03-17T11:47:00;94742.50;;;15.08;47.61
43553;BME280;29153;42.696;23.218;2024-03-17T11:49:31;94738.89;;;15.15;46.53
43553;BME280;29153;42.696;23.218;2024-03-17T11:52:14;94737.90;;;15.11;45.31
43553;BME280;29153;42.696;23.218;2024-03-17T11:54:45;94730.11;;;15.01;47.75
43553;BME280;29153;42.696;23.218;2024-03-17T11:57:27;94737.51;;;15.04;47.23
43553;BME280;29153;42.696;23.218;2024-03-17T11:59:52;94725.00;;;15.16;49.04
43553;BME280;29153;42.696;23.218;2024-03-17T12:02:28;94727.22;;;15.11;48.04
43553;BME280;29153;42.696;23.218;2024-03-17T12:05:01;94730.94;;;15.13;45.10
43553;BME280;29153;42.696;23.218;2024-03-17T12:07:29;94727.82;;;15.08;47.81
43553;BME280;29153;42.696;23.218;2024-03-17T12:09:57;94725.25;;;15.03;47.98
43553;BME280;29153;42.696;23.218;2024-03-17T12:12:26;94733.34;;;14.84;48.97
43553;BME280;29153;42.696;23.218;2024-03-17T12:15:05;94730.08;;;14.57;48.91
43553;BME280;29153;42.696;23.218;2024-03-17T12:17:32;94730.08;;;14.57;48.91
43553;BME280;29153;42.696;23.218;2024-03-17T12:20:00;94728.55;;;14.54;51.15
43553;BME280;29153;42.696;23.218;2024-03-17T12:22:27;94724.49;;;14.56;52.45
43553;BME280;29153;42.696;23.218;2024-03-17T12:24:57;94719.34;;;14.63;52.71
43553;BME280;29153;42.696;23.218;2024-03-17T12:27:26;94715.33;;;14.76;54.35
43553;BME280;29153;42.696;23.218;2024-03-17T12:29:55;94717.69;;;14.80;52.58
43553;BME280;29153;42.696;23.218;2024-03-17T12:32:24;94722.06;;;14.74;51.37
43553;BME280;29153;42.696;23.218;2024-03-17T12:34:56;94717.66;;;14.50;52.23
43553;BME280;29153;42.696;23.218;2024-03-17T12:37:28;94722.54;;;14.62;52.94
43553;BME280;29153;42.696;23.218;2024-03-17T12:40:01;94723.14;;;14.73;53.97
43553;BME280;29153;42.696;23.218;2024-03-17T12:42:29;94717.72;;;14.78;54.73
43553;BME280;29153;42.696;23.218;2024-03-17T12:44:59;94717.01;;;14.72;56.44
43553;BME280;29153;42.696;23.218;2024-03-17T12:47:32;94716.08;;;14.66;54.36
43553;BME280;29153;42.696;23.218;2024-03-17T12:50:08;94707.67;;;14.58;53.83
43553;BME280;29153;42.696;23.218;2024-03-17T12:52:33;94710.05;;;14.44;57.54
43553;BME280;29153;42.696;23.218;2024-03-17T12:55:06;94710.05;;;14.44;56.25
43553;BME280;29153;42.696;23.218;2024-03-17T12:57:53;94708.08;;;14.66;57.28
43553;BME280;29153;42.696;23.218;2024-03-17T13:00:39;94704.72;;;14.44;56.87
43553;BME280;29153;42.696;23.218;2024-03-17T13:03:07;94703.66;;;14.42;58.42
43553;BME280;29153;42.696;23.218;2024-03-17T13:05:35;94706.91;;;14.23;56.77
43553;BME280;29153;42.696;23.218;2024-03-17T13:08:03;94701.30;;;14.25;57.14
43553;BME280;29153;42.696;23.218;2024-03-17T13:10:32;94702.91;;;14.07;57.30
43553;BME280;29153;42.696;23.218;2024-03-17T13:13:04;94699.91;;;14.11;58.01
43553;BME280;29153;42.696;23.218;2024-03-17T13:15:32;94691.58;;;13.99;60.48
43553;BME280;29153;42.696;23.218;2024-03-17T13:18:02;94695.94;;;14.08;59.39